Time;durP1;ratioP1;P1;durP2;ratioP2;P2;SDS_P1;SDS_P2;PMS_P1;PMS_P2;Temp;Humidity;BMP_temperature;BMP_pressure;BME280_temperature;BME280_humidity;BME280_pressure;Samples;Min_cycle;Max_cycle;Signal;HPM_P1;HPM_P2
2022/12/03 00:02:20;;;;;;;11.07;9.33;;;3.70;99.90;;;;;;4988853;28;20214;-81
2022/12/03 00:04:46;;;;;;;11.23;9.60;;;3.70;99.90;;;;;;4988262;28;20198;-83
2022/12/03 00:07:11;;;;;;;13.83;10.00;;;3.80;99.90;;;;;;4993596;28;20179;-82
2022/12/03 00:09:37;;;;;;;11.20;9.00;;;3.80;99.90;;;;;;4988300;28;20186;-81
2022/12/03 00:12:03;;;;;;;10.67;8.87;;;3.80;99.90;;;;;;4988618;28;20219;-81
2022/12/03 00:14:28;;;;;;;10.00;9.00;;;3.80;99.90;;;;;;4987444;28;20207;-81
2022/12/03 00:16:54;;;;;;;10.40;9.30;;;3.80;99.90;;;;;;4977320;28;20693;-81
2022/12/03 00:19:20;;;;;;;10.77;8.67;;;3.80;99.90;;;;;;4974195;28;20190;-81
2022/12/03 00:21:47;;;;;;;10.77;9.17;;;3.90;99.90;;;;;;4999698;28;20195;-81
2022/12/03 00:24:13;;;;;;;10.77;9.57;;;3.80;99.90;;;;;;4982409;28;20202;-79
2022/12/03 00:26:39;;;;;;;11.77;9.50;;;3.80;99.90;;;;;;4987833;28;20210;-82
2022/12/03 00:29:04;;;;;;;10.93;8.83;;;3.90;99.90;;;;;;4987862;28;20213;-81
2022/12/03 00:31:30;;;;;;;9.47;8.47;;;3.90;99.90;;;;;;4988613;28;20191;-80
2022/12/03 00:33:56;;;;;;;9.73;8.73;;;3.90;99.90;;;;;;4988751;28;20199;-82
2022/12/03 00:36:21;;;;;;;11.40;9.60;;;4.00;99.90;;;;;;4988704;28;20648;-81
2022/12/03 00:38:47;;;;;;;10.47;9.10;;;3.90;99.90;;;;;;4988318;28;20183;-81
2022/12/03 00:41:13;;;;;;;10.97;9.23;;;3.90;99.90;;;;;;4988183;28;20281;-82
2022/12/03 00:43:39;;;;;;;11.03;9.00;;;3.90;99.90;;;;;;4987895;28;20207;-80
2022/12/03 00:46:04;;;;;;;10.47;9.37;;;3.90;99.90;;;;;;4988998;28;20207;-81
2022/12/03 00:48:30;;;;;;;10.77;9.43;;;3.80;99.90;;;;;;4990105;28;20206;-82
2022/12/03 00:50:56;;;;;;;12.13;9.37;;;3.80;99.90;;;;;;4991786;28;20187;-81
2022/12/03 00:53:21;;;;;;;10.10;9.10;;;3.80;99.90;;;;;;4989537;28;20676;-80
2022/12/03 00:55:49;;;;;;;9.70;8.70;;;3.80;99.90;;;;;;4986387;28;20257;-80
2022/12/03 00:58:15;;;;;;;11.47;8.50;;;3.80;99.90;;;;;;4987487;28;20190;-82
2022/12/03 01:00:42;;;;;;;11.50;8.93;;;3.80;99.90;;;;;;4990756;28;20189;-80
2022/12/03 01:03:08;;;;;;;12.77;9.03;;;3.80;99.90;;;;;;4986244;28;20221;-80
2022/12/03 01:05:34;;;;;;;12.53;10.80;;;3.80;99.90;;;;;;4998008;28;20713;-79
2022/12/03 01:08:00;;;;;;;10.87;9.50;;;3.80;99.90;;;;;;4992874;28;20181;-81
2022/12/03 01:10:26;;;;;;;13.53;10.67;;;3.70;99.90;;;;;;4986975;28;20814;-79
2022/12/03 01:12:51;;;;;;;12.00;10.20;;;3.70;99.90;;;;;;4987019;28;20225;-80
2022/12/03 01:15:17;;;;;;;13.37;10.37;;;3.70;99.90;;;;;;4986440;28;20205;-81
2022/12/03 01:17:43;;;;;;;11.87;10.67;;;3.70;99.90;;;;;;4986682;28;20194;-81
2022/12/03 01:20:10;;;;;;;12.17;10.40;;;3.70;99.90;;;;;;4986908;28;20250;-81
2022/12/03 01:22:36;;;;;;;10.63;9.50;;;3.70;99.90;;;;;;4987111;28;20269;-81
2022/12/03 01:25:02;;;;;;;12.10;10.47;;;3.70;99.90;;;;;;4985597;28;20210;-80
2022/12/03 01:27:28;;;;;;;11.97;10.30;;;3.70;99.90;;;;;;4986894;28;20269;-78
2022/12/03 01:29:54;;;;;;;12.13;10.13;;;3.70;99.90;;;;;;4986953;28;20588;-81
2022/12/03 01:32:19;;;;;;;11.47;10.27;;;3.70;99.90;;;;;;4994799;28;20643;-80
2022/12/03 01:34:48;;;;;;;12.80;10.03;;;3.70;99.90;;;;;;4986585;28;20175;-81
2022/12/03 01:37:14;;;;;;;12.00;10.30;;;3.70;99.90;;;;;;4986521;28;20191;-81
2022/12/03 01:39:40;;;;;;;11.60;10.40;;;3.70;99.90;;;;;;4985292;28;20249;-81
2022/12/03 01:42:08;;;;;;;11.80;10.43;;;3.70;99.90;;;;;;4986343;28;20262;-79
2022/12/03 01:44:36;;;;;;;11.57;9.97;;;3.70;99.90;;;;;;4994425;28;20262;-80
2022/12/03 01:47:05;;;;;;;12.07;9.90;;;3.70;99.90;;;;;;4986514;28;20206;-82
2022/12/03 01:50:04;;;;;;;11.27;9.97;;;3.80;99.90;;;;;;4975180;28;20191;-81
2022/12/03 01:52:36;;;;;;;11.37;9.93;;;3.80;99.90;;;;;;4985808;28;20253;-79
2022/12/03 01:55:06;;;;;;;11.13;9.77;;;3.90;99.90;;;;;;4986277;28;20178;-81
2022/12/03 01:57:35;;;;;;;12.63;10.00;;;3.90;99.90;;;;;;4982813;28;20203;-81
2022/12/03 02:00:01;;;;;;;10.43;9.30;;;3.90;99.90;;;;;;4986412;28;20217;-82
2022/12/03 02:02:29;;;;;;;10.67;9.57;;;3.80;99.90;;;;;;4986584;28;20214;-82
2022/12/03 02:04:56;;;;;;;12.20;10.83;;;3.80;99.90;;;;;;4978658;28;20183;-81
2022/12/03 02:07:31;;;;;;;11.30;10.10;;;3.80;99.90;;;;;;4985910;28;20214;-81
2022/12/03 02:09:59;;;;;;;12.13;9.73;;;3.90;99.90;;;;;;4983185;28;20210;-82
2022/12/03 02:12:39;;;;;;;12.73;10.83;;;3.80;99.90;;;;;;4984504;28;20195;-81
2022/12/03 02:15:06;;;;;;;12.17;10.30;;;3.90;99.90;;;;;;4984517;28;20190;-81
2022/12/03 02:17:32;;;;;;;12.63;10.87;;;3.90;99.90;;;;;;4985236;28;20193;-81
2022/12/03 02:20:00;;;;;;;10.83;9.70;;;3.90;99.90;;;;;;4986194;28;20182;-82
2022/12/03 02:22:39;;;;;;;10.77;9.63;;;3.90;99.90;;;;;;4985814;28;20206;-79
2022/12/03 02:25:19;;;;;;;11.50;10.30;;;3.90;99.90;;;;;;4978727;28;20183;-82
2022/12/03 02:27:46;;;;;;;12.17;10.10;;;3.90;99.90;;;;;;4982116;28;20222;-80
2022/12/03 02:30:16;;;;;;;12.13;10.47;;;3.90;99.90;;;;;;4986040;28;20255;-81
2022/12/03 02:32:42;;;;;;;11.93;10.70;;;3.80;99.90;;;;;;4977396;28;20194;-81
2022/12/03 02:35:18;;;;;;;11.60;10.43;;;3.90;99.90;;;;;;4985801;28;20179;-80
2022/12/03 02:37:46;;;;;;;12.63;10.80;;;3.80;99.90;;;;;;4981941;28;20197;-79
2022/12/03 02:40:19;;;;;;;12.00;10.77;;;3.90;99.90;;;;;;4984540;28;20210;-80
2022/12/03 02:42:45;;;;;;;12.20;10.90;;;3.90;99.90;;;;;;4982845;28;20218;-81
2022/12/03 02:45:19;;;;;;;12.50;10.80;;;3.90;99.90;;;;;;4985639;28;20215;-79
2022/12/03 02:48:13;;;;;;;12.13;10.03;;;3.90;99.90;;;;;;4986065;28;20179;-82
2022/12/03 02:50:50;;;;;;;14.20;10.60;;;3.90;99.90;;;;;;4983853;28;20668;-82
2022/12/03 02:53:20;;;;;;;12.37;10.50;;;3.90;99.90;;;;;;4985769;28;20195;-81
2022/12/03 02:55:47;;;;;;;12.87;10.23;;;3.90;99.90;;;;;;4985736;28;20186;-82
2022/12/03 02:58:14;;;;;;;12.03;10.70;;;3.80;99.90;;;;;;4974874;28;20187;-81
2022/12/03 03:00:41;;;;;;;12.03;10.60;;;3.80;99.90;;;;;;4975134;28;20190;-80
2022/12/03 03:03:07;;;;;;;14.47;10.90;;;3.80;99.90;;;;;;4986236;28;20696;-81
2022/12/03 03:05:35;;;;;;;14.33;11.70;;;3.80;99.90;;;;;;4985935;28;20214;-79
2022/12/03 03:08:01;;;;;;;12.83;10.50;;;3.80;99.90;;;;;;4984133;28;20505;-81
2022/12/03 03:10:28;;;;;;;12.77;11.20;;;3.80;99.90;;;;;;5000412;28;20262;-80
2022/12/03 03:12:55;;;;;;;13.33;11.67;;;3.70;99.90;;;;;;4983610;28;20211;-81
2022/12/03 03:15:23;;;;;;;12.17;10.73;;;3.70;99.90;;;;;;4985045;28;20217;-81
2022/12/03 03:17:48;;;;;;;13.57;11.17;;;3.70;99.90;;;;;;4984949;28;20735;-81
2022/12/03 03:20:14;;;;;;;12.77;11.13;;;3.70;99.90;;;;;;4984784;28;20179;-80
2022/12/03 03:22:41;;;;;;;13.83;11.40;;;3.60;99.90;;;;;;4988718;28;20214;-81
2022/12/03 03:25:14;;;;;;;13.40;11.17;;;3.60;99.90;;;;;;4989340;28;20234;-80
2022/12/03 03:27:41;;;;;;;12.17;10.70;;;3.50;99.90;;;;;;4988521;28;20198;-80
2022/12/03 03:30:08;;;;;;;12.80;11.40;;;3.50;99.90;;;;;;4983663;28;20175;-82
2022/12/03 03:32:35;;;;;;;12.83;10.90;;;3.50;99.90;;;;;;4984770;28;20751;-80
2022/12/03 03:35:01;;;;;;;13.07;11.00;;;3.50;99.90;;;;;;4984898;28;20206;-81
2022/12/03 03:37:27;;;;;;;11.80;10.43;;;3.50;99.90;;;;;;4984389;28;20171;-81
2022/12/03 03:39:54;;;;;;;13.37;10.63;;;3.50;99.90;;;;;;4984583;28;20806;-81
2022/12/03 03:42:20;;;;;;;12.63;10.60;;;3.40;99.90;;;;;;4983847;28;20203;-80
2022/12/03 03:44:46;;;;;;;14.93;11.10;;;3.40;99.90;;;;;;4983802;28;20210;-81
2022/12/03 03:47:13;;;;;;;13.70;11.43;;;3.50;99.90;;;;;;4984463;28;20203;-79
2022/12/03 03:49:39;;;;;;;13.07;11.67;;;3.50;99.90;;;;;;4998949;28;20250;-81
2022/12/03 03:52:05;;;;;;;11.93;10.50;;;3.60;99.90;;;;;;4983808;28;20207;-80
2022/12/03 03:54:31;;;;;;;13.27;11.87;;;3.60;99.90;;;;;;4984080;28;20186;-80
2022/12/03 03:56:57;;;;;;;12.57;10.13;;;3.60;99.90;;;;;;4984174;28;20190;-80
2022/12/03 03:59:23;;;;;;;12.53;10.87;;;3.60;99.90;;;;;;4983962;28;20198;-82
2022/12/03 04:01:48;;;;;;;13.93;11.63;;;3.60;99.90;;;;;;4984386;28;20554;-79
2022/12/03 04:04:20;;;;;;;12.17;10.87;;;3.70;99.90;;;;;;4993478;28;20186;-80
2022/12/03 04:06:46;;;;;;;15.03;11.73;;;3.70;99.90;;;;;;4984088;28;20215;-80
2022/12/03 04:09:12;;;;;;;14.60;11.13;;;3.70;99.90;;;;;;4983985;28;20265;-80
2022/12/03 04:14:22;;;;;;;12.80;11.30;;;3.70;99.90;;;;;;5000376;28;20182;-82
2022/12/03 04:16:48;;;;;;;13.63;12.23;;;3.60;99.90;;;;;;5000041;28;20182;-82
2022/12/03 04:19:13;;;;;;;15.03;11.93;;;3.70;99.90;;;;;;5000128;28;21546;-82
2022/12/03 04:24:23;;;;;;;13.87;12.37;;;3.70;99.90;;;;;;4987680;28;20202;-79
2022/12/03 04:29:33;;;;;;;12.67;11.33;;;3.60;99.90;;;;;;4966769;29;20163;-82
2022/12/03 04:37:27;;;;;;;14.07;11.20;;;3.70;99.90;;;;;;4983195;28;20863;-82
2022/12/03 04:39:53;;;;;;;13.93;11.77;;;3.70;99.90;;;;;;4983663;28;20206;-83
2022/12/03 04:42:19;;;;;;;15.73;12.47;;;3.60;99.90;;;;;;4984679;28;20211;-81
2022/12/03 04:44:44;;;;;;;14.70;11.93;;;3.60;99.90;;;;;;4983891;28;20195;-81
2022/12/03 04:47:15;;;;;;;14.67;12.43;;;3.60;99.90;;;;;;4993612;28;20372;-82
2022/12/03 04:49:43;;;;;;;15.73;12.43;;;3.60;99.90;;;;;;4992967;28;20185;-82
2022/12/03 04:52:10;;;;;;;14.60;12.27;;;3.70;99.90;;;;;;4992726;28;20231;-82
2022/12/03 04:54:36;;;;;;;15.33;12.53;;;3.50;99.90;;;;;;4982574;28;20198;-82
2022/12/03 04:57:03;;;;;;;17.40;12.97;;;3.50;99.90;;;;;;4982634;28;20206;-82
2022/12/03 04:59:28;;;;;;;14.57;12.30;;;3.50;99.90;;;;;;4981572;28;20236;-81
2022/12/03 05:01:54;;;;;;;17.13;13.23;;;3.50;99.90;;;;;;4982167;28;20194;-80
2022/12/03 05:04:20;;;;;;;14.90;12.37;;;3.50;99.90;;;;;;4983239;28;20253;-81
2022/12/03 05:06:46;;;;;;;19.10;12.57;;;3.60;99.90;;;;;;4981739;28;20257;-80
2022/12/03 05:09:12;;;;;;;14.40;12.90;;;3.60;99.90;;;;;;4982706;28;20194;-80
2022/12/03 05:11:38;;;;;;;14.70;12.30;;;3.70;99.90;;;;;;4983230;28;20629;-79
2022/12/03 05:14:04;;;;;;;17.77;13.07;;;3.70;99.90;;;;;;4982230;28;20195;-80
2022/12/03 05:16:30;;;;;;;15.60;12.90;;;3.70;99.90;;;;;;4983317;28;20186;-81
2022/12/03 05:18:56;;;;;;;15.10;12.13;;;3.70;99.90;;;;;;4982599;28;20270;-80
2022/12/03 05:21:22;;;;;;;14.63;12.70;;;3.70;99.90;;;;;;4982389;28;20186;-79
2022/12/03 05:23:48;;;;;;;20.73;14.97;;;3.60;99.90;;;;;;4983401;28;20250;-80
2022/12/03 05:26:14;;;;;;;17.63;15.10;;;3.70;99.90;;;;;;4981405;28;20203;-81
2022/12/03 05:28:40;;;;;;;19.33;14.80;;;3.70;99.90;;;;;;4981703;28;20194;-79
2022/12/03 05:31:05;;;;;;;18.70;14.20;;;3.70;99.90;;;;;;4983426;28;20187;-81
2022/12/03 05:33:31;;;;;;;17.30;14.33;;;3.70;99.90;;;;;;4982951;28;20305;-81
2022/12/03 05:35:57;;;;;;;18.03;13.87;;;3.70;99.90;;;;;;4983313;28;20201;-82
2022/12/03 05:38:23;;;;;;;20.80;14.90;;;3.70;99.90;;;;;;4981943;28;20202;-80
2022/12/03 05:40:48;;;;;;;16.47;13.73;;;3.60;99.90;;;;;;4979128;28;20194;-81
2022/12/03 05:43:14;;;;;;;18.20;14.33;;;3.60;99.90;;;;;;4969015;28;20255;-80
2022/12/03 05:45:42;;;;;;;19.37;14.70;;;3.60;99.90;;;;;;4985858;28;20249;-81
2022/12/03 05:48:11;;;;;;;26.43;18.43;;;3.60;99.90;;;;;;4982968;28;20261;-81
2022/12/03 05:50:38;;;;;;;24.43;16.67;;;3.60;99.90;;;;;;4983275;28;20179;-81
2022/12/03 05:53:04;;;;;;;19.63;15.07;;;3.60;99.90;;;;;;4969320;28;20211;-81
2022/12/03 05:55:30;;;;;;;19.70;15.20;;;3.60;99.90;;;;;;4981342;28;20226;-81
2022/12/03 05:57:56;;;;;;;19.47;14.93;;;3.60;99.90;;;;;;4978852;28;20289;-81
2022/12/03 06:00:24;;;;;;;21.40;16.50;;;3.60;99.90;;;;;;4982402;28;20217;-81
2022/12/03 06:02:50;;;;;;;19.80;15.30;;;3.60;99.90;;;;;;4985381;28;20267;-82
2022/12/03 06:05:18;;;;;;;20.47;17.43;;;3.70;99.90;;;;;;4982664;28;20298;-81
2022/12/03 06:07:44;;;;;;;21.17;15.13;;;3.70;99.90;;;;;;4981335;28;20187;-82
2022/12/03 06:10:12;;;;;;;21.10;15.90;;;3.70;99.90;;;;;;4982763;28;20175;-80
2022/12/03 06:12:38;;;;;;;20.73;15.63;;;3.70;99.90;;;;;;4983029;28;20299;-82
2022/12/03 06:15:04;;;;;;;17.83;15.00;;;3.80;99.90;;;;;;4981751;28;20241;-81
2022/12/03 06:17:30;;;;;;;18.70;15.00;;;3.70;99.90;;;;;;4977971;28;20645;-81
2022/12/03 06:19:55;;;;;;;20.27;15.73;;;3.70;99.90;;;;;;4980863;28;20213;-81
2022/12/03 06:22:21;;;;;;;20.03;15.20;;;3.70;99.90;;;;;;4982434;28;20217;-81
2022/12/03 06:24:47;;;;;;;18.00;14.90;;;3.60;99.90;;;;;;4982496;28;20214;-81
2022/12/03 06:27:27;;;;;;;19.60;14.97;;;3.60;99.90;;;;;;4965093;28;20278;-81
2022/12/03 06:29:53;;;;;;;20.53;16.40;;;3.60;99.90;;;;;;4981146;28;20210;-81
2022/12/03 06:32:19;;;;;;;20.13;16.37;;;3.50;99.90;;;;;;4981457;28;20309;-82
2022/12/03 06:34:44;;;;;;;20.53;18.33;;;3.50;99.90;;;;;;4982213;28;20226;-82
2022/12/03 06:37:10;;;;;;;23.13;17.37;;;3.40;99.90;;;;;;4977967;28;20306;-80
2022/12/03 06:39:36;;;;;;;19.00;15.43;;;3.30;99.90;;;;;;4982645;28;20269;-82
2022/12/03 06:42:01;;;;;;;21.20;15.10;;;3.30;99.90;;;;;;4981316;28;20226;-81
2022/12/03 06:44:27;;;;;;;18.93;15.17;;;3.30;99.90;;;;;;4982469;28;20190;-80
2022/12/03 06:46:53;;;;;;;20.93;15.50;;;3.40;99.90;;;;;;4981483;28;20203;-81
2022/12/03 06:49:18;;;;;;;20.67;16.17;;;3.40;99.90;;;;;;4982226;28;20182;-81
2022/12/03 06:51:44;;;;;;;21.73;15.63;;;3.40;99.90;;;;;;4982948;28;20186;-80
2022/12/03 06:54:10;;;;;;;20.40;16.10;;;3.40;99.90;;;;;;4977929;28;20182;-81
2022/12/03 06:56:35;;;;;;;22.17;16.80;;;3.40;99.90;;;;;;4981164;28;20186;-81
2022/12/03 06:59:01;;;;;;;20.30;17.03;;;3.30;99.90;;;;;;4982557;28;20291;-81
2022/12/03 07:01:27;;;;;;;20.07;16.23;;;3.30;99.90;;;;;;4981104;28;20199;-83
2022/12/03 07:03:53;;;;;;;21.17;16.90;;;3.20;99.90;;;;;;4978806;28;20230;-78
2022/12/03 07:06:18;;;;;;;21.97;17.20;;;3.20;99.90;;;;;;4986115;28;20713;-80
2022/12/03 07:08:44;;;;;;;19.97;16.60;;;3.10;99.90;;;;;;4981063;28;20215;-77
2022/12/03 07:11:29;;;;;;;24.30;17.90;;;3.10;99.90;;;;;;4981357;28;20198;-77
2022/12/03 07:13:56;;;;;;;25.07;17.23;;;3.10;99.90;;;;;;4982124;28;20214;-82
2022/12/03 07:16:22;;;;;;;23.50;17.37;;;3.10;99.90;;;;;;4983318;28;20258;-82
2022/12/03 07:18:48;;;;;;;30.20;23.47;;;3.00;99.90;;;;;;4982461;28;20253;-82
2022/12/03 07:21:14;;;;;;;28.57;22.13;;;3.00;99.90;;;;;;4984877;28;20194;-82
2022/12/03 07:23:39;;;;;;;57.20;38.17;;;2.90;99.90;;;;;;4982842;28;20295;-80
2022/12/03 07:26:05;;;;;;;70.97;49.27;;;3.00;99.90;;;;;;4984260;28;20215;-82
2022/12/03 07:28:31;;;;;;;79.50;51.57;;;3.00;99.90;;;;;;4974180;28;20201;-82
2022/12/03 07:30:56;;;;;;;80.23;55.07;;;3.00;99.90;;;;;;4981616;28;20214;-82
2022/12/03 07:33:22;;;;;;;52.77;44.37;;;3.00;99.90;;;;;;4982989;28;20226;-82
2022/12/03 07:35:48;;;;;;;59.43;51.63;;;3.00;99.90;;;;;;4983595;28;20475;-81
2022/12/03 07:38:13;;;;;;;44.93;35.07;;;3.00;99.90;;;;;;4984628;28;20634;-82
2022/12/03 07:40:39;;;;;;;32.83;27.97;;;3.10;99.90;;;;;;4986776;28;20191;-82
2022/12/03 07:43:05;;;;;;;32.07;26.07;;;3.10;99.90;;;;;;4996079;28;20625;-80
2022/12/03 07:45:30;;;;;;;34.73;30.93;;;3.10;99.90;;;;;;4992771;28;20297;-82
2022/12/03 07:47:56;;;;;;;31.73;26.43;;;3.10;99.90;;;;;;4995537;28;20186;-82
2022/12/03 07:50:22;;;;;;;28.63;24.03;;;3.00;99.90;;;;;;4987709;28;20354;-80
2022/12/03 07:52:48;;;;;;;27.10;21.33;;;3.00;99.90;;;;;;4991891;28;20267;-81
2022/12/03 07:55:13;;;;;;;27.87;20.87;;;3.00;99.90;;;;;;4995713;28;20182;-82
2022/12/03 07:57:39;;;;;;;25.17;19.93;;;3.00;99.90;;;;;;4992491;28;20210;-81
2022/12/03 08:00:06;;;;;;;25.30;18.90;;;3.00;99.90;;;;;;4996667;28;20183;-81
2022/12/03 08:02:31;;;;;;;25.47;18.10;;;2.90;99.90;;;;;;4988714;28;20230;-82
2022/12/03 08:04:57;;;;;;;25.83;18.43;;;3.00;99.90;;;;;;4993049;28;20195;-83
2022/12/03 08:07:23;;;;;;;24.07;18.87;;;3.10;99.90;;;;;;4988329;28;20225;-81
2022/12/03 08:09:49;;;;;;;25.43;19.87;;;3.20;99.90;;;;;;4984664;28;20194;-81
2022/12/03 08:12:18;;;;;;;26.50;19.00;;;3.20;99.90;;;;;;4989923;28;21141;-83
2022/12/03 08:14:44;;;;;;;23.03;19.00;;;3.30;99.90;;;;;;4986467;28;20222;-82
2022/12/03 08:17:12;;;;;;;28.73;21.10;;;3.30;99.90;;;;;;4993325;28;20174;-81
2022/12/03 08:19:37;;;;;;;25.07;18.93;;;3.20;99.90;;;;;;5006482;28;20242;-81
2022/12/03 08:22:13;;;;;;;26.73;18.53;;;3.20;99.90;;;;;;4992755;28;20191;-82
2022/12/03 08:24:39;;;;;;;26.73;19.27;;;3.30;99.90;;;;;;4990775;28;20194;-81
2022/12/03 08:27:15;;;;;;;25.03;18.47;;;3.20;99.90;;;;;;4992302;28;20206;-81
2022/12/03 08:29:41;;;;;;;25.57;19.53;;;3.10;99.90;;;;;;4987650;28;20193;-83
2022/12/03 08:32:10;;;;;;;26.77;18.67;;;3.10;99.90;;;;;;4993465;28;20226;-82
2022/12/03 08:34:41;;;;;;;29.50;19.43;;;3.10;99.90;;;;;;5014485;28;20183;-81
2022/12/03 08:37:18;;;;;;;27.10;18.80;;;3.10;99.90;;;;;;4992076;28;20339;-82
2022/12/03 08:39:49;;;;;;;27.90;20.33;;;3.20;99.90;;;;;;4996563;28;20189;-82
2022/12/03 08:45:29;;;;;;;27.43;19.27;;;3.30;99.90;;;;;;4995427;28;20202;-82
2022/12/03 08:48:00;;;;;;;53.23;21.90;;;3.30;99.90;;;;;;4990874;28;20213;-81
2022/12/03 08:50:37;;;;;;;27.43;19.90;;;3.30;99.90;;;;;;4992237;28;20191;-79
2022/12/03 08:53:14;;;;;;;27.23;19.07;;;3.30;99.90;;;;;;4988202;28;20294;-82
2022/12/03 08:55:51;;;;;;;56.00;21.87;;;3.20;99.90;;;;;;4977553;28;20182;-83
2022/12/03 08:58:40;;;;;;;25.07;19.50;;;3.20;99.90;;;;;;4987183;28;20182;-82
2022/12/03 09:01:09;;;;;;;24.93;17.70;;;3.20;99.90;;;;;;4986880;28;20187;-83
2022/12/03 09:03:36;;;;;;;24.80;20.13;;;3.20;99.90;;;;;;4988407;28;20238;-81
2022/12/03 09:06:02;;;;;;;26.40;18.80;;;3.20;99.90;;;;;;4988702;28;20297;-82
2022/12/03 09:08:28;;;;;;;26.00;19.60;;;3.30;99.90;;;;;;5009969;28;20183;-81
2022/12/03 09:10:54;;;;;;;23.47;18.50;;;3.40;99.90;;;;;;4992756;28;20811;-81
2022/12/03 09:13:20;;;;;;;27.13;19.67;;;3.40;99.90;;;;;;4991234;28;20207;-81
2022/12/03 09:15:46;;;;;;;26.33;19.63;;;3.40;99.90;;;;;;4988989;28;20257;-83
2022/12/03 09:18:13;;;;;;;28.43;20.87;;;3.30;99.90;;;;;;4990742;28;20198;-81
2022/12/03 09:20:39;;;;;;;28.20;18.93;;;3.40;99.90;;;;;;4987152;28;20191;-82
2022/12/03 09:23:05;;;;;;;29.00;20.63;;;3.40;99.90;;;;;;4986697;28;20226;-82
2022/12/03 09:25:31;;;;;;;26.50;20.10;;;3.40;99.90;;;;;;4988342;28;20202;-81
2022/12/03 09:27:56;;;;;;;27.57;19.67;;;3.40;99.90;;;;;;4984989;28;20215;-81
2022/12/03 09:30:22;;;;;;;27.90;19.50;;;3.30;99.90;;;;;;4987676;28;20681;-81
2022/12/03 09:32:48;;;;;;;29.23;19.73;;;3.30;99.90;;;;;;4993736;28;20229;-79
2022/12/03 09:35:14;;;;;;;28.67;20.53;;;3.40;99.90;;;;;;4993576;28;20198;-81
2022/12/03 09:37:39;;;;;;;30.57;21.43;;;3.40;99.90;;;;;;4986480;28;20247;-81
2022/12/03 09:40:06;;;;;;;30.20;19.57;;;3.50;99.90;;;;;;4986730;28;20196;-83
2022/12/03 09:42:32;;;;;;;30.63;21.20;;;3.50;99.90;;;;;;4988019;28;20203;-82
2022/12/03 09:44:58;;;;;;;29.37;20.30;;;3.60;99.90;;;;;;4989044;28;20183;-82
2022/12/03 09:47:24;;;;;;;28.30;19.70;;;3.60;99.90;;;;;;4987300;28;20304;-82
2022/12/03 09:49:51;;;;;;;32.37;20.57;;;3.60;99.90;;;;;;4986493;28;20183;-82
2022/12/03 09:52:24;;;;;;;29.10;21.07;;;3.70;99.90;;;;;;4987617;28;20218;-81
2022/12/03 09:54:50;;;;;;;31.47;22.00;;;3.60;99.90;;;;;;4986134;28;20279;-82
2022/12/03 09:57:17;;;;;;;29.23;20.97;;;3.60;99.90;;;;;;4985273;28;20210;-83
2022/12/03 09:59:43;;;;;;;29.07;21.17;;;3.60;99.90;;;;;;4981059;28;20361;-81
2022/12/03 10:02:23;;;;;;;30.03;21.80;;;3.60;99.90;;;;;;4989164;28;20199;-82
2022/12/03 10:04:49;;;;;;;31.63;20.93;;;3.70;99.90;;;;;;4988032;28;20186;-82
2022/12/03 10:07:15;;;;;;;31.87;21.33;;;3.70;99.90;;;;;;4991312;28;20207;-82
2022/12/03 10:09:41;;;;;;;29.07;21.13;;;3.70;99.90;;;;;;4994817;28;20564;-81
2022/12/03 10:12:11;;;;;;;30.70;22.53;;;3.60;99.90;;;;;;4994891;28;20234;-82
2022/12/03 10:14:38;;;;;;;32.00;21.67;;;3.60;99.90;;;;;;4987401;28;20195;-82
2022/12/03 10:17:04;;;;;;;32.00;21.97;;;3.70;99.90;;;;;;4981501;28;20202;-83
2022/12/03 10:19:34;;;;;;;30.87;22.17;;;3.70;99.90;;;;;;4980037;28;20206;-83
2022/12/03 10:22:00;;;;;;;31.37;21.30;;;3.80;99.90;;;;;;4975182;28;20264;-82
2022/12/03 10:24:29;;;;;;;32.90;22.30;;;3.80;99.90;;;;;;4979932;28;20187;-82
2022/12/03 10:26:58;;;;;;;34.07;24.57;;;3.90;99.90;;;;;;4983180;28;20242;-82
2022/12/03 10:29:32;;;;;;;33.17;22.53;;;3.90;99.90;;;;;;4968241;28;20191;-83
2022/12/03 10:32:02;;;;;;;38.50;24.23;;;4.00;99.90;;;;;;4978729;28;20193;-81
2022/12/03 10:34:32;;;;;;;34.27;22.93;;;4.00;99.90;;;;;;4976696;28;20199;-83
2022/12/03 10:37:13;;;;;;;34.83;21.67;;;4.10;99.90;;;;;;4977301;28;20361;-82
2022/12/03 10:40:07;;;;;;;43.73;24.10;;;4.10;99.90;;;;;;4978579;28;20206;-82
2022/12/03 10:42:38;;;;;;;35.30;22.87;;;4.10;99.90;;;;;;4981641;28;20525;-83
2022/12/03 10:45:07;;;;;;;34.63;23.60;;;4.20;99.90;;;;;;4984411;28;20187;-82
2022/12/03 10:47:33;;;;;;;54.47;25.40;;;4.30;99.90;;;;;;4984085;28;20497;-82
2022/12/03 10:50:04;;;;;;;39.80;22.70;;;4.30;99.90;;;;;;4979552;28;20289;-82
2022/12/03 10:52:30;;;;;;;32.63;21.73;;;4.30;99.90;;;;;;4984391;28;20221;-81
2022/12/03 10:54:56;;;;;;;36.83;24.73;;;4.30;99.90;;;;;;4984632;28;20226;-82
2022/12/03 10:57:22;;;;;;;32.20;23.77;;;4.30;99.90;;;;;;4984762;28;20442;-83
2022/12/03 10:59:48;;;;;;;35.40;22.93;;;4.30;99.90;;;;;;4986312;28;20265;-82
2022/12/03 11:02:25;;;;;;;41.63;26.03;;;4.40;99.90;;;;;;4986794;28;20202;-83
2022/12/03 11:04:51;;;;;;;32.67;22.50;;;4.30;99.90;;;;;;4986912;28;20499;-77
2022/12/03 11:07:19;;;;;;;34.03;24.70;;;4.40;99.90;;;;;;4979560;28;20336;-75
2022/12/03 11:09:48;;;;;;;32.97;23.17;;;4.40;99.90;;;;;;4979491;28;20182;-78
2022/12/03 11:12:23;;;;;;;29.50;21.83;;;4.40;99.90;;;;;;4976472;28;20209;-78
2022/12/03 11:14:55;;;;;;;30.20;23.07;;;4.40;99.90;;;;;;4978955;28;20198;-78
2022/12/03 11:17:43;;;;;;;33.93;24.97;;;4.40;99.90;;;;;;4982796;28;20175;-77
2022/12/03 11:20:24;;;;;;;31.20;22.17;;;4.50;99.90;;;;;;4996871;28;20183;-83
2022/12/03 11:22:55;;;;;;;31.30;23.33;;;4.60;99.90;;;;;;4998087;28;20273;-82
2022/12/03 11:25:23;;;;;;;33.07;23.57;;;4.60;99.90;;;;;;4996915;28;20271;-84
2022/12/03 11:28:11;;;;;;;36.00;24.13;;;4.70;99.90;;;;;;4998560;28;20191;-77
2022/12/03 11:30:52;;;;;;;33.53;24.17;;;4.70;99.90;;;;;;4995641;28;20736;-82
2022/12/03 11:33:39;;;;;;;34.30;23.73;;;4.80;99.90;;;;;;4991947;28;20337;-82
2022/12/03 11:36:04;;;;;;;32.37;23.53;;;4.80;99.90;;;;;;4989137;28;20688;-82
2022/12/03 11:38:54;;;;;;;34.50;24.23;;;4.80;99.90;;;;;;4993893;28;20190;-83
2022/12/03 11:41:31;;;;;;;31.00;22.67;;;4.80;99.90;;;;;;4986778;28;20190;-83
2022/12/03 11:43:59;;;;;;;30.33;24.57;;;4.80;99.90;;;;;;4987581;28;20210;-82
2022/12/03 11:46:45;;;;;;;29.93;23.13;;;5.00;99.90;;;;;;4980220;28;20215;-83
2022/12/03 11:49:33;;;;;;;35.27;25.00;;;5.10;99.90;;;;;;4987154;28;20179;-83
2022/12/03 11:52:02;;;;;;;34.10;23.60;;;5.10;99.90;;;;;;4985482;28;20191;-83
2022/12/03 11:54:33;;;;;;;32.77;25.13;;;5.10;99.90;;;;;;4986377;28;20431;-83
2022/12/03 11:56:59;;;;;;;35.33;25.80;;;5.10;99.90;;;;;;4989513;28;20201;-83
2022/12/03 11:59:26;;;;;;;32.27;23.73;;;5.20;99.90;;;;;;4988993;28;20227;-82
2022/12/03 12:01:52;;;;;;;34.23;23.27;;;5.20;99.90;;;;;;4988961;28;20207;-82
2022/12/03 12:04:33;;;;;;;30.30;22.60;;;5.20;99.90;;;;;;4988148;28;20191;-83
2022/12/03 12:06:59;;;;;;;32.77;21.37;;;5.20;99.90;;;;;;4979065;28;20207;-83
2022/12/03 12:09:51;;;;;;;41.90;24.27;;;5.30;99.90;;;;;;4988201;28;20175;-83
2022/12/03 12:12:35;;;;;;;38.13;24.20;;;5.20;99.90;;;;;;4985713;28;20219;-83
2022/12/03 12:15:40;;;;;;;44.23;24.43;;;5.20;99.90;;;;;;4981442;28;20207;-83
2022/12/03 12:18:35;;;;;;;35.67;22.57;;;5.20;99.90;;;;;;4986966;28;20197;-84
2022/12/03 12:21:41;;;;;;;37.37;21.53;;;5.20;99.90;;;;;;4992211;28;20178;-84
2022/12/03 12:24:38;;;;;;;33.83;21.97;;;5.20;99.90;;;;;;4989500;28;20221;-82
2022/12/03 12:27:13;;;;;;;35.63;24.03;;;5.30;99.90;;;;;;4991458;28;20238;-82
2022/12/03 12:29:41;;;;;;;85.07;32.07;;;5.40;99.90;;;;;;4993134;28;20183;-82
2022/12/03 12:32:10;;;;;;;46.40;24.37;;;5.40;99.90;;;;;;4976237;28;20217;-82
2022/12/03 12:34:41;;;;;;;33.57;22.50;;;5.40;99.90;;;;;;4983349;28;20183;-82
2022/12/03 12:37:13;;;;;;;27.80;21.73;;;5.30;99.90;;;;;;4981472;28;20230;-84
2022/12/03 12:39:39;;;;;;;29.40;21.50;;;5.30;99.90;;;;;;4993652;28;20183;-83
2022/12/03 12:42:31;;;;;;;29.83;21.90;;;5.30;99.90;;;;;;4996243;28;20214;-82
2022/12/03 12:45:22;;;;;;;27.20;21.07;;;5.30;99.90;;;;;;4995467;28;20210;-82
2022/12/03 12:48:19;;;;;;;28.07;21.40;;;5.30;99.90;;;;;;4988920;28;20183;-83
2022/12/03 12:50:47;;;;;;;32.47;23.40;;;5.30;99.90;;;;;;4980655;28;20183;-83
2022/12/03 12:53:24;;;;;;;28.27;21.13;;;5.20;99.90;;;;;;4988718;28;20683;-83
2022/12/03 12:56:00;;;;;;;27.63;21.43;;;5.30;99.90;;;;;;4992029;28;20241;-82
2022/12/03 12:58:30;;;;;;;30.37;21.83;;;5.30;99.90;;;;;;4989407;28;20187;-82
2022/12/03 13:01:06;;;;;;;28.13;20.47;;;5.40;99.90;;;;;;4977964;28;20738;-83
2022/12/03 13:03:34;;;;;;;35.27;24.83;;;5.40;99.90;;;;;;4980566;28;20273;-83
2022/12/03 13:06:01;;;;;;;29.70;21.77;;;5.40;99.90;;;;;;4975310;28;20237;-84